sensor_id;sensor_type;location;lat;lon;timestamp;P1;durP1;ratioP1;P2;durP2;ratioP2
5831;SDS011;50943;51.448;7.646;2023-08-20T00:01:29;10.37;;;7.20;;
5831;SDS011;50943;51.448;7.646;2023-08-20T00:03:56;9.77;;;7.03;;
5831;SDS011;50943;51.448;7.646;2023-08-20T00:06:23;13.70;;;7.93;;
5831;SDS011;50943;51.448;7.646;2023-08-20T00:08:51;11.83;;;7.23;;
5831;SDS011;50943;51.448;7.646;2023-08-20T00:11:17;11.37;;;7.70;;
5831;SDS011;50943;51.448;7.646;2023-08-20T00:13:45;9.97;;;8.00;;
5831;SDS011;50943;51.448;7.646;2023-08-20T00:16:12;12.43;;;8.90;;
5831;SDS011;50943;51.448;7.646;2023-08-20T00:18:40;13.17;;;7.83;;
5831;SDS011;50943;51.448;7.646;2023-08-20T00:21:07;10.10;;;7.17;;
5831;SDS011;50943;51.448;7.646;2023-08-20T00:23:34;10.60;;;7.60;;
5831;SDS011;50943;51.448;7.646;2023-08-20T00:26:01;12.17;;;7.30;;
5831;SDS011;50943;51.448;7.646;2023-08-20T00:28:28;9.83;;;8.00;;
5831;SDS011;50943;51.448;7.646;2023-08-20T00:30:56;17.80;;;8.17;;
5831;SDS011;50943;51.448;7.646;2023-08-20T00:33:23;11.77;;;7.57;;
5831;SDS011;50943;51.448;7.646;2023-08-20T00:35:50;10.53;;;7.53;;
5831;SDS011;50943;51.448;7.646;2023-08-20T00:38:16;9.50;;;6.97;;
5831;SDS011;50943;51.448;7.646;2023-08-20T00:40:43;12.90;;;7.27;;
5831;SDS011;50943;51.448;7.646;2023-08-20T00:43:09;9.60;;;7.40;;
5831;SDS011;50943;51.448;7.646;2023-08-20T00:45:36;11.23;;;7.67;;
5831;SDS011;50943;51.448;7.646;2023-08-20T00:48:04;9.93;;;7.43;;
5831;SDS011;50943;51.448;7.646;2023-08-20T00:50:32;11.90;;;7.57;;
5831;SDS011;50943;51.448;7.646;2023-08-20T00:53:01;10.60;;;6.80;;
5831;SDS011;50943;51.448;7.646;2023-08-20T00:55:28;16.07;;;7.43;;
5831;SDS011;50943;51.448;7.646;2023-08-20T00:57:55;9.50;;;6.27;;
5831;SDS011;50943;51.448;7.646;2023-08-20T01:00:22;10.70;;;6.90;;
5831;SDS011;50943;51.448;7.646;2023-08-20T01:02:50;12.93;;;7.50;;
5831;SDS011;50943;51.448;7.646;2023-08-20T01:05:19;12.27;;;7.90;;
5831;SDS011;50943;51.448;7.646;2023-08-20T01:07:55;12.33;;;8.00;;
5831;SDS011;50943;51.448;7.646;2023-08-20T01:10:27;12.40;;;7.87;;
5831;SDS011;50943;51.448;7.646;2023-08-20T01:12:58;14.00;;;8.90;;
5831;SDS011;50943;51.448;7.646;2023-08-20T01:15:25;14.10;;;10.60;;
5831;SDS011;50943;51.448;7.646;2023-08-20T01:17:51;15.00;;;8.60;;
5831;SDS011;50943;51.448;7.646;2023-08-20T01:20:19;19.50;;;8.10;;
5831;SDS011;50943;51.448;7.646;2023-08-20T01:22:52;16.57;;;9.40;;
5831;SDS011;50943;51.448;7.646;2023-08-20T01:25:50;11.33;;;7.20;;
5831;SDS011;50943;51.448;7.646;2023-08-20T01:28:27;28.77;;;20.03;;
5831;SDS011;50943;51.448;7.646;2023-08-20T01:30:55;27.13;;;19.87;;
5831;SDS011;50943;51.448;7.646;2023-08-20T01:33:23;30.00;;;20.53;;
5831;SDS011;50943;51.448;7.646;2023-08-20T01:35:50;26.77;;;19.50;;
5831;SDS011;50943;51.448;7.646;2023-08-20T01:38:16;28.47;;;20.67;;
5831;SDS011;50943;51.448;7.646;2023-08-20T01:40:43;25.53;;;19.30;;
5831;SDS011;50943;51.448;7.646;2023-08-20T01:43:10;28.07;;;18.80;;
5831;SDS011;50943;51.448;7.646;2023-08-20T01:45:38;22.30;;;17.77;;
5831;SDS011;50943;51.448;7.646;2023-08-20T01:48:06;21.33;;;15.80;;
5831;SDS011;50943;51.448;7.646;2023-08-20T01:50:33;20.60;;;15.20;;
5831;SDS011;50943;51.448;7.646;2023-08-20T01:53:00;18.47;;;13.70;;
5831;SDS011;50943;51.448;7.646;2023-08-20T01:55:27;25.97;;;12.90;;
5831;SDS011;50943;51.448;7.646;2023-08-20T01:57:54;19.17;;;13.37;;
5831;SDS011;50943;51.448;7.646;2023-08-20T02:00:21;20.90;;;12.00;;
5831;SDS011;50943;51.448;7.646;2023-08-20T02:02:51;15.63;;;11.83;;
5831;SDS011;50943;51.448;7.646;2023-08-20T02:05:18;15.43;;;10.27;;
5831;SDS011;50943;51.448;7.646;2023-08-20T02:07:44;17.50;;;12.43;;
5831;SDS011;50943;51.448;7.646;2023-08-20T02:10:11;14.87;;;11.27;;
5831;SDS011;50943;51.448;7.646;2023-08-20T02:12:37;16.83;;;11.83;;
5831;SDS011;50943;51.448;7.646;2023-08-20T02:15:04;19.87;;;11.87;;
5831;SDS011;50943;51.448;7.646;2023-08-20T02:17:32;18.23;;;10.77;;
5831;SDS011;50943;51.448;7.646;2023-08-20T02:20:02;22.60;;;11.30;;
5831;SDS011;50943;51.448;7.646;2023-08-20T02:22:29;13.80;;;10.93;;
5831;SDS011;50943;51.448;7.646;2023-08-20T02:24:56;14.50;;;9.37;;
5831;SDS011;50943;51.448;7.646;2023-08-20T02:27:22;11.90;;;9.03;;
5831;SDS011;50943;51.448;7.646;2023-08-20T02:29:49;19.00;;;9.53;;
5831;SDS011;50943;51.448;7.646;2023-08-20T02:32:16;14.87;;;9.33;;
5831;SDS011;50943;51.448;7.646;2023-08-20T02:34:43;17.53;;;9.90;;
5831;SDS011;50943;51.448;7.646;2023-08-20T02:37:11;15.10;;;9.10;;
5831;SDS011;50943;51.448;7.646;2023-08-20T02:39:38;13.97;;;8.90;;
5831;SDS011;50943;51.448;7.646;2023-08-20T02:42:05;12.67;;;9.30;;
5831;SDS011;50943;51.448;7.646;2023-08-20T02:44:32;14.63;;;9.33;;
5831;SDS011;50943;51.448;7.646;2023-08-20T02:46:58;16.10;;;9.13;;
5831;SDS011;50943;51.448;7.646;2023-08-20T02:49:25;12.63;;;8.60;;
5831;SDS011;50943;51.448;7.646;2023-08-20T02:51:51;8.93;;;7.80;;
5831;SDS011;50943;51.448;7.646;2023-08-20T02:54:19;17.20;;;8.53;;
5831;SDS011;50943;51.448;7.646;2023-08-20T02:56:46;16.93;;;8.80;;
5831;SDS011;50943;51.448;7.646;2023-08-20T02:59:12;11.97;;;8.27;;
5831;SDS011;50943;51.448;7.646;2023-08-20T03:01:39;11.13;;;8.30;;
5831;SDS011;50943;51.448;7.646;2023-08-20T03:04:05;15.57;;;8.53;;
5831;SDS011;50943;51.448;7.646;2023-08-20T03:06:32;14.27;;;9.30;;
5831;SDS011;50943;51.448;7.646;2023-08-20T03:08:58;13.93;;;9.20;;
5831;SDS011;50943;51.448;7.646;2023-08-20T03:11:26;19.47;;;9.17;;
5831;SDS011;50943;51.448;7.646;2023-08-20T03:13:53;11.10;;;8.67;;
5831;SDS011;50943;51.448;7.646;2023-08-20T03:16:19;19.30;;;8.77;;
5831;SDS011;50943;51.448;7.646;2023-08-20T03:18:46;14.40;;;7.30;;
5831;SDS011;50943;51.448;7.646;2023-08-20T03:21:12;13.50;;;8.43;;
5831;SDS011;50943;51.448;7.646;2023-08-20T03:23:39;12.03;;;7.53;;
5831;SDS011;50943;51.448;7.646;2023-08-20T03:26:05;13.70;;;8.23;;
5831;SDS011;50943;51.448;7.646;2023-08-20T03:28:33;14.90;;;7.30;;
5831;SDS011;50943;51.448;7.646;2023-08-20T03:31:00;9.97;;;7.67;;
5831;SDS011;50943;51.448;7.646;2023-08-20T03:33:27;15.00;;;8.30;;
5831;SDS011;50943;51.448;7.646;2023-08-20T03:35:54;13.63;;;8.10;;
5831;SDS011;50943;51.448;7.646;2023-08-20T03:38:21;15.70;;;8.10;;
5831;SDS011;50943;51.448;7.646;2023-08-20T03:40:50;12.10;;;7.57;;
5831;SDS011;50943;51.448;7.646;2023-08-20T03:43:17;14.80;;;8.70;;
5831;SDS011;50943;51.448;7.646;2023-08-20T03:45:44;18.03;;;8.60;;
5831;SDS011;50943;51.448;7.646;2023-08-20T03:48:16;14.67;;;9.80;;
5831;SDS011;50943;51.448;7.646;2023-08-20T03:50:42;15.07;;;10.10;;
5831;SDS011;50943;51.448;7.646;2023-08-20T03:53:09;15.80;;;10.73;;
5831;SDS011;50943;51.448;7.646;2023-08-20T03:55:35;18.60;;;10.20;;
5831;SDS011;50943;51.448;7.646;2023-08-20T03:58:02;19.00;;;10.13;;
5831;SDS011;50943;51.448;7.646;2023-08-20T04:00:29;18.80;;;10.27;;
5831;SDS011;50943;51.448;7.646;2023-08-20T04:02:57;18.00;;;10.70;;
5831;SDS011;50943;51.448;7.646;2023-08-20T04:05:23;21.07;;;11.10;;
5831;SDS011;50943;51.448;7.646;2023-08-20T04:07:50;14.27;;;9.60;;
5831;SDS011;50943;51.448;7.646;2023-08-20T04:10:18;17.53;;;9.77;;
5831;SDS011;50943;51.448;7.646;2023-08-20T04:12:44;12.20;;;9.20;;
5831;SDS011;50943;51.448;7.646;2023-08-20T04:15:11;16.63;;;9.27;;
5831;SDS011;50943;51.448;7.646;2023-08-20T04:17:41;15.87;;;10.20;;
5831;SDS011;50943;51.448;7.646;2023-08-20T04:20:09;19.20;;;10.90;;
5831;SDS011;50943;51.448;7.646;2023-08-20T04:22:37;15.10;;;10.20;;
5831;SDS011;50943;51.448;7.646;2023-08-20T04:25:04;14.93;;;9.80;;
5831;SDS011;50943;51.448;7.646;2023-08-20T04:27:31;11.13;;;8.37;;
5831;SDS011;50943;51.448;7.646;2023-08-20T04:30:02;16.10;;;9.03;;
5831;SDS011;50943;51.448;7.646;2023-08-20T04:32:29;16.53;;;8.67;;
5831;SDS011;50943;51.448;7.646;2023-08-20T04:34:55;15.93;;;7.80;;
5831;SDS011;50943;51.448;7.646;2023-08-20T04:37:23;16.60;;;9.40;;
5831;SDS011;50943;51.448;7.646;2023-08-20T04:39:50;15.67;;;10.63;;
5831;SDS011;50943;51.448;7.646;2023-08-20T04:42:16;17.40;;;11.50;;
5831;SDS011;50943;51.448;7.646;2023-08-20T04:44:43;15.77;;;11.73;;
5831;SDS011;50943;51.448;7.646;2023-08-20T04:47:11;23.90;;;12.63;;
5831;SDS011;50943;51.448;7.646;2023-08-20T04:49:37;21.13;;;12.97;;
5831;SDS011;50943;51.448;7.646;2023-08-20T04:52:04;19.17;;;12.40;;
5831;SDS011;50943;51.448;7.646;2023-08-20T04:54:32;16.67;;;12.07;;
5831;SDS011;50943;51.448;7.646;2023-08-20T04:56:59;22.03;;;11.80;;
5831;SDS011;50943;51.448;7.646;2023-08-20T04:59:25;24.10;;;13.10;;
5831;SDS011;50943;51.448;7.646;2023-08-20T05:01:52;27.53;;;17.43;;
5831;SDS011;50943;51.448;7.646;2023-08-20T05:04:18;30.50;;;20.40;;
5831;SDS011;50943;51.448;7.646;2023-08-20T05:06:45;36.40;;;21.70;;
5831;SDS011;50943;51.448;7.646;2023-08-20T05:09:11;30.00;;;17.93;;
5831;SDS011;50943;51.448;7.646;2023-08-20T05:11:39;38.30;;;21.57;;
5831;SDS011;50943;51.448;7.646;2023-08-20T05:14:08;29.07;;;19.73;;
5831;SDS011;50943;51.448;7.646;2023-08-20T05:16:34;30.10;;;18.50;;
5831;SDS011;50943;51.448;7.646;2023-08-20T05:19:01;30.50;;;17.60;;
5831;SDS011;50943;51.448;7.646;2023-08-20T05:21:28;26.97;;;15.97;;
5831;SDS011;50943;51.448;7.646;2023-08-20T05:23:54;23.80;;;15.20;;
5831;SDS011;50943;51.448;7.646;2023-08-20T05:26:21;21.33;;;15.57;;
5831;SDS011;50943;51.448;7.646;2023-08-20T05:28:49;17.40;;;13.70;;
5831;SDS011;50943;51.448;7.646;2023-08-20T05:31:17;22.50;;;13.50;;
5831;SDS011;50943;51.448;7.646;2023-08-20T05:33:44;20.80;;;12.50;;
5831;SDS011;50943;51.448;7.646;2023-08-20T05:36:10;19.43;;;12.90;;
5831;SDS011;50943;51.448;7.646;2023-08-20T05:38:37;22.17;;;12.40;;
5831;SDS011;50943;51.448;7.646;2023-08-20T05:41:03;24.10;;;12.30;;
5831;SDS011;50943;51.448;7.646;2023-08-20T05:43:31;19.33;;;13.67;;
5831;SDS011;50943;51.448;7.646;2023-08-20T05:45:59;24.57;;;13.27;;
5831;SDS011;50943;51.448;7.646;2023-08-20T05:48:25;20.10;;;12.43;;
5831;SDS011;50943;51.448;7.646;2023-08-20T05:50:52;20.03;;;13.83;;
5831;SDS011;50943;51.448;7.646;2023-08-20T05:53:18;18.63;;;11.87;;
5831;SDS011;50943;51.448;7.646;2023-08-20T05:55:45;24.40;;;16.07;;
5831;SDS011;50943;51.448;7.646;2023-08-20T05:58:13;28.00;;;20.10;;
5831;SDS011;50943;51.448;7.646;2023-08-20T06:00:40;24.20;;;18.23;;
5831;SDS011;50943;51.448;7.646;2023-08-20T06:03:08;28.63;;;19.40;;
5831;SDS011;50943;51.448;7.646;2023-08-20T06:05:35;26.83;;;17.30;;
5831;SDS011;50943;51.448;7.646;2023-08-20T06:08:01;25.03;;;18.50;;
5831;SDS011;50943;51.448;7.646;2023-08-20T06:10:28;36.00;;;21.30;;
5831;SDS011;50943;51.448;7.646;2023-08-20T06:12:56;42.37;;;20.73;;
5831;SDS011;50943;51.448;7.646;2023-08-20T06:15:23;42.40;;;22.10;;
5831;SDS011;50943;51.448;7.646;2023-08-20T06:17:49;39.83;;;20.20;;
5831;SDS011;50943;51.448;7.646;2023-08-20T06:20:17;44.23;;;23.20;;
5831;SDS011;50943;51.448;7.646;2023-08-20T06:22:45;48.03;;;23.00;;
5831;SDS011;50943;51.448;7.646;2023-08-20T06:25:11;46.30;;;25.03;;
5831;SDS011;50943;51.448;7.646;2023-08-20T06:27:38;46.67;;;25.13;;
5831;SDS011;50943;51.448;7.646;2023-08-20T06:30:05;50.57;;;24.40;;
5831;SDS011;50943;51.448;7.646;2023-08-20T06:32:32;50.77;;;26.00;;
5831;SDS011;50943;51.448;7.646;2023-08-20T06:34:59;39.70;;;21.60;;
5831;SDS011;50943;51.448;7.646;2023-08-20T06:37:27;37.60;;;21.63;;
5831;SDS011;50943;51.448;7.646;2023-08-20T06:39:53;40.97;;;22.33;;
5831;SDS011;50943;51.448;7.646;2023-08-20T06:42:19;39.83;;;19.23;;
5831;SDS011;50943;51.448;7.646;2023-08-20T06:44:46;37.00;;;22.17;;
5831;SDS011;50943;51.448;7.646;2023-08-20T06:47:13;38.90;;;20.30;;
5831;SDS011;50943;51.448;7.646;2023-08-20T06:49:40;33.90;;;20.67;;
5831;SDS011;50943;51.448;7.646;2023-08-20T06:52:07;31.43;;;18.80;;
5831;SDS011;50943;51.448;7.646;2023-08-20T06:54:35;35.33;;;18.47;;
5831;SDS011;50943;51.448;7.646;2023-08-20T06:57:02;33.47;;;19.17;;
5831;SDS011;50943;51.448;7.646;2023-08-20T06:59:29;30.07;;;18.40;;
5831;SDS011;50943;51.448;7.646;2023-08-20T07:01:56;30.57;;;17.13;;
5831;SDS011;50943;51.448;7.646;2023-08-20T07:04:22;28.27;;;18.10;;
5831;SDS011;50943;51.448;7.646;2023-08-20T07:06:50;32.47;;;19.27;;
5831;SDS011;50943;51.448;7.646;2023-08-20T07:09:16;30.20;;;16.77;;
5831;SDS011;50943;51.448;7.646;2023-08-20T07:11:44;32.73;;;16.20;;
5831;SDS011;50943;51.448;7.646;2023-08-20T07:14:11;24.10;;;16.50;;
5831;SDS011;50943;51.448;7.646;2023-08-20T07:16:37;25.93;;;16.70;;
5831;SDS011;50943;51.448;7.646;2023-08-20T07:19:04;26.63;;;15.70;;
5831;SDS011;50943;51.448;7.646;2023-08-20T07:21:30;31.23;;;16.57;;
5831;SDS011;50943;51.448;7.646;2023-08-20T07:23:57;33.13;;;17.33;;
5831;SDS011;50943;51.448;7.646;2023-08-20T07:26:23;25.23;;;15.80;;
5831;SDS011;50943;51.448;7.646;2023-08-20T07:28:51;24.00;;;14.57;;
5831;SDS011;50943;51.448;7.646;2023-08-20T07:31:24;21.37;;;14.03;;
5831;SDS011;50943;51.448;7.646;2023-08-20T07:33:52;22.60;;;16.00;;
5831;SDS011;50943;51.448;7.646;2023-08-20T07:36:20;20.53;;;13.90;;
5831;SDS011;50943;51.448;7.646;2023-08-20T07:38:47;21.77;;;14.73;;
5831;SDS011;50943;51.448;7.646;2023-08-20T07:41:14;20.47;;;15.60;;
5831;SDS011;50943;51.448;7.646;2023-08-20T07:43:41;22.00;;;15.37;;
5831;SDS011;50943;51.448;7.646;2023-08-20T07:46:09;23.10;;;14.90;;
5831;SDS011;50943;51.448;7.646;2023-08-20T07:48:36;25.93;;;15.60;;
5831;SDS011;50943;51.448;7.646;2023-08-20T07:51:02;21.83;;;15.67;;
5831;SDS011;50943;51.448;7.646;2023-08-20T07:53:30;19.20;;;14.40;;
5831;SDS011;50943;51.448;7.646;2023-08-20T07:55:56;25.43;;;15.73;;
5831;SDS011;50943;51.448;7.646;2023-08-20T07:58:23;23.10;;;14.60;;
5831;SDS011;50943;51.448;7.646;2023-08-20T08:00:50;23.23;;;17.30;;
5831;SDS011;50943;51.448;7.646;2023-08-20T08:03:18;19.60;;;14.03;;
5831;SDS011;50943;51.448;7.646;2023-08-20T08:05:46;17.37;;;14.60;;
5831;SDS011;50943;51.448;7.646;2023-08-20T08:08:13;17.53;;;14.10;;
5831;SDS011;50943;51.448;7.646;2023-08-20T08:10:39;22.00;;;15.10;;
5831;SDS011;50943;51.448;7.646;2023-08-20T08:13:06;17.23;;;14.57;;
5831;SDS011;50943;51.448;7.646;2023-08-20T08:15:32;18.43;;;14.30;;
5831;SDS011;50943;51.448;7.646;2023-08-20T08:17:59;18.03;;;14.30;;
5831;SDS011;50943;51.448;7.646;2023-08-20T08:20:27;18.23;;;14.97;;
5831;SDS011;50943;51.448;7.646;2023-08-20T08:22:53;17.30;;;14.93;;
5831;SDS011;50943;51.448;7.646;2023-08-20T08:25:20;21.50;;;15.87;;
5831;SDS011;50943;51.448;7.646;2023-08-20T08:27:46;20.97;;;16.97;;
5831;SDS011;50943;51.448;7.646;2023-08-20T08:30:13;17.33;;;12.83;;
5831;SDS011;50943;51.448;7.646;2023-08-20T08:32:40;14.67;;;12.83;;
5831;SDS011;50943;51.448;7.646;2023-08-20T08:35:07;16.70;;;14.40;;
5831;SDS011;50943;51.448;7.646;2023-08-20T08:37:35;14.43;;;12.03;;
5831;SDS011;50943;51.448;7.646;2023-08-20T08:40:01;14.30;;;11.73;;
5831;SDS011;50943;51.448;7.646;2023-08-20T08:42:30;13.73;;;11.00;;
5831;SDS011;50943;51.448;7.646;2023-08-20T08:44:58;15.03;;;13.47;;
5831;SDS011;50943;51.448;7.646;2023-08-20T08:47:26;11.17;;;10.00;;
5831;SDS011;50943;51.448;7.646;2023-08-20T08:49:53;11.43;;;10.23;;
5831;SDS011;50943;51.448;7.646;2023-08-20T08:52:21;13.83;;;10.77;;
5831;SDS011;50943;51.448;7.646;2023-08-20T08:54:50;13.03;;;9.07;;
5831;SDS011;50943;51.448;7.646;2023-08-20T08:57:17;7.20;;;5.90;;
5831;SDS011;50943;51.448;7.646;2023-08-20T08:59:44;5.43;;;4.33;;
5831;SDS011;50943;51.448;7.646;2023-08-20T09:02:11;7.20;;;6.23;;
5831;SDS011;50943;51.448;7.646;2023-08-20T09:04:38;5.77;;;4.90;;
5831;SDS011;50943;51.448;7.646;2023-08-20T09:07:05;6.43;;;4.87;;
5831;SDS011;50943;51.448;7.646;2023-08-20T09:09:32;7.97;;;5.57;;
5831;SDS011;50943;51.448;7.646;2023-08-20T09:12:00;11.53;;;5.40;;
5831;SDS011;50943;51.448;7.646;2023-08-20T09:14:27;5.20;;;3.60;;
5831;SDS011;50943;51.448;7.646;2023-08-20T09:16:55;4.63;;;4.10;;
5831;SDS011;50943;51.448;7.646;2023-08-20T09:19:22;5.70;;;4.13;;
5831;SDS011;50943;51.448;7.646;2023-08-20T09:21:49;5.60;;;3.80;;
5831;SDS011;50943;51.448;7.646;2023-08-20T09:24:22;6.47;;;4.63;;
5831;SDS011;50943;51.448;7.646;2023-08-20T09:26:55;5.88;;;4.65;;
5831;SDS011;50943;51.448;7.646;2023-08-20T09:29:24;5.88;;;4.95;;
5831;SDS011;50943;51.448;7.646;2023-08-20T09:31:51;5.20;;;4.70;;
5831;SDS011;50943;51.448;7.646;2023-08-20T09:34:31;6.78;;;5.55;;
5831;SDS011;50943;51.448;7.646;2023-08-20T09:37:02;5.05;;;4.38;;
5831;SDS011;50943;51.448;7.646;2023-08-20T09:39:28;5.32;;;4.20;;
5831;SDS011;50943;51.448;7.646;2023-08-20T09:41:55;4.88;;;4.38;;
5831;SDS011;50943;51.448;7.646;2023-08-20T09:44:24;4.53;;;4.13;;
5831;SDS011;50943;51.448;7.646;2023-08-20T09:46:52;9.40;;;3.65;;
5831;SDS011;50943;51.448;7.646;2023-08-20T09:49:19;4.00;;;3.33;;
5831;SDS011;50943;51.448;7.646;2023-08-20T09:51:45;5.03;;;3.27;;
5831;SDS011;50943;51.448;7.646;2023-08-20T09:54:17;4.43;;;3.83;;
5831;SDS011;50943;51.448;7.646;2023-08-20T09:56:49;5.97;;;4.73;;
5831;SDS011;50943;51.448;7.646;2023-08-20T09:59:18;4.47;;;4.07;;
5831;SDS011;50943;51.448;7.646;2023-08-20T10:01:46;6.13;;;4.10;;
5831;SDS011;50943;51.448;7.646;2023-08-20T10:04:13;4.43;;;4.03;;
5831;SDS011;50943;51.448;7.646;2023-08-20T10:06:40;4.60;;;3.53;;
5831;SDS011;50943;51.448;7.646;2023-08-20T10:09:07;6.43;;;4.05;;
5831;SDS011;50943;51.448;7.646;2023-08-20T10:11:33;5.05;;;4.30;;
5831;SDS011;50943;51.448;7.646;2023-08-20T10:14:00;5.10;;;4.60;;
5831;SDS011;50943;51.448;7.646;2023-08-20T10:16:27;9.05;;;4.35;;
5831;SDS011;50943;51.448;7.646;2023-08-20T10:18:55;5.15;;;4.57;;
5831;SDS011;50943;51.448;7.646;2023-08-20T10:21:24;6.07;;;4.45;;
5831;SDS011;50943;51.448;7.646;2023-08-20T10:23:51;5.20;;;3.80;;
5831;SDS011;50943;51.448;7.646;2023-08-20T10:26:17;4.97;;;4.47;;
5831;SDS011;50943;51.448;7.646;2023-08-20T10:28:46;4.05;;;3.65;;
5831;SDS011;50943;51.448;7.646;2023-08-20T10:31:15;4.93;;;4.43;;
5831;SDS011;50943;51.448;7.646;2023-08-20T10:33:48;5.90;;;4.18;;
5831;SDS011;50943;51.448;7.646;2023-08-20T10:36:17;5.53;;;4.10;;
5831;SDS011;50943;51.448;7.646;2023-08-20T10:38:47;4.75;;;4.35;;
5831;SDS011;50943;51.448;7.646;2023-08-20T10:41:15;4.90;;;4.50;;
5831;SDS011;50943;51.448;7.646;2023-08-20T10:43:46;4.50;;;4.10;;
5831;SDS011;50943;51.448;7.646;2023-08-20T10:46:13;4.47;;;4.05;;
5831;SDS011;50943;51.448;7.646;2023-08-20T10:48:41;6.97;;;4.00;;
5831;SDS011;50943;51.448;7.646;2023-08-20T10:51:09;5.13;;;4.25;;
5831;SDS011;50943;51.448;7.646;2023-08-20T10:53:37;6.03;;;3.72;;
5831;SDS011;50943;51.448;7.646;2023-08-20T10:56:08;4.28;;;3.88;;
5831;SDS011;50943;51.448;7.646;2023-08-20T10:58:38;5.82;;;4.60;;
5831;SDS011;50943;51.448;7.646;2023-08-20T11:01:18;4.27;;;3.87;;
5831;SDS011;50943;51.448;7.646;2023-08-20T11:03:46;3.77;;;3.30;;
5831;SDS011;50943;51.448;7.646;2023-08-20T11:06:14;4.73;;;3.50;;
5831;SDS011;50943;51.448;7.646;2023-08-20T11:08:43;6.97;;;4.83;;
5831;SDS011;50943;51.448;7.646;2023-08-20T11:11:10;6.17;;;5.53;;
5831;SDS011;50943;51.448;7.646;2023-08-20T11:13:37;5.68;;;5.18;;
5831;SDS011;50943;51.448;7.646;2023-08-20T11:16:04;5.60;;;5.10;;
5831;SDS011;50943;51.448;7.646;2023-08-20T11:18:32;6.07;;;5.47;;
5831;SDS011;50943;51.448;7.646;2023-08-20T11:21:00;6.95;;;6.25;;
5831;SDS011;50943;51.448;7.646;2023-08-20T11:23:26;5.90;;;5.30;;
5831;SDS011;50943;51.448;7.646;2023-08-20T11:25:55;8.27;;;5.25;;
5831;SDS011;50943;51.448;7.646;2023-08-20T11:28:22;5.20;;;4.70;;
5831;SDS011;50943;51.448;7.646;2023-08-20T11:30:51;5.75;;;4.43;;
5831;SDS011;50943;51.448;7.646;2023-08-20T11:33:19;5.07;;;4.57;;
5831;SDS011;50943;51.448;7.646;2023-08-20T11:35:47;5.32;;;4.82;;
5831;SDS011;50943;51.448;7.646;2023-08-20T11:38:14;5.55;;;4.57;;
5831;SDS011;50943;51.448;7.646;2023-08-20T11:40:40;5.13;;;4.53;;
5831;SDS011;50943;51.448;7.646;2023-08-20T11:43:08;8.60;;;5.50;;
5831;SDS011;50943;51.448;7.646;2023-08-20T11:45:43;9.80;;;5.03;;
5831;SDS011;50943;51.448;7.646;2023-08-20T11:48:10;6.03;;;5.30;;
5831;SDS011;50943;51.448;7.646;2023-08-20T11:50:37;6.00;;;5.30;;
5831;SDS011;50943;51.448;7.646;2023-08-20T11:53:04;7.33;;;5.93;;
5831;SDS011;50943;51.448;7.646;2023-08-20T11:55:30;7.80;;;5.63;;
5831;SDS011;50943;51.448;7.646;2023-08-20T11:57:57;7.10;;;5.40;;
5831;SDS011;50943;51.448;7.646;2023-08-20T12:00:25;7.13;;;5.33;;
5831;SDS011;50943;51.448;7.646;2023-08-20T12:02:52;8.83;;;5.53;;
5831;SDS011;50943;51.448;7.646;2023-08-20T12:05:20;7.17;;;4.47;;
5831;SDS011;50943;51.448;7.646;2023-08-20T12:07:55;6.63;;;4.33;;
5831;SDS011;50943;51.448;7.646;2023-08-20T12:10:23;5.70;;;4.27;;
5831;SDS011;50943;51.448;7.646;2023-08-20T12:12:50;5.27;;;4.77;;
5831;SDS011;50943;51.448;7.646;2023-08-20T12:15:17;7.73;;;4.40;;
5831;SDS011;50943;51.448;7.646;2023-08-20T12:17:47;8.33;;;5.10;;
5831;SDS011;50943;51.448;7.646;2023-08-20T12:20:21;5.17;;;4.77;;
5831;SDS011;50943;51.448;7.646;2023-08-20T12:22:48;8.27;;;5.23;;
5831;SDS011;50943;51.448;7.646;2023-08-20T12:25:15;5.93;;;5.20;;
5831;SDS011;50943;51.448;7.646;2023-08-20T12:27:41;6.00;;;5.30;;
5831;SDS011;50943;51.448;7.646;2023-08-20T12:30:08;7.30;;;6.20;;
5831;SDS011;50943;51.448;7.646;2023-08-20T12:32:35;13.40;;;5.10;;
5831;SDS011;50943;51.448;7.646;2023-08-20T12:35:04;7.70;;;5.70;;
5831;SDS011;50943;51.448;7.646;2023-08-20T12:37:31;6.23;;;4.83;;
5831;SDS011;50943;51.448;7.646;2023-08-20T12:39:58;6.83;;;5.03;;
5831;SDS011;50943;51.448;7.646;2023-08-20T12:42:25;6.70;;;5.27;;
5831;SDS011;50943;51.448;7.646;2023-08-20T12:44:51;7.80;;;5.80;;
5831;SDS011;50943;51.448;7.646;2023-08-20T12:47:18;8.00;;;5.00;;
5831;SDS011;50943;51.448;7.646;2023-08-20T12:49:44;8.20;;;5.73;;
5831;SDS011;50943;51.448;7.646;2023-08-20T12:52:12;9.77;;;5.47;;
5831;SDS011;50943;51.448;7.646;2023-08-20T12:54:39;7.37;;;5.30;;
5831;SDS011;50943;51.448;7.646;2023-08-20T12:57:05;6.00;;;5.23;;
5831;SDS011;50943;51.448;7.646;2023-08-20T12:59:32;5.00;;;4.50;;
5831;SDS011;50943;51.448;7.646;2023-08-20T13:01:58;5.90;;;5.07;;
5831;SDS011;50943;51.448;7.646;2023-08-20T13:04:25;8.73;;;5.90;;
5831;SDS011;50943;51.448;7.646;2023-08-20T13:06:52;6.20;;;5.47;;
5831;SDS011;50943;51.448;7.646;2023-08-20T13:09:21;8.50;;;5.93;;
5831;SDS011;50943;51.448;7.646;2023-08-20T13:11:47;9.70;;;6.90;;
5831;SDS011;50943;51.448;7.646;2023-08-20T13:14:15;8.40;;;6.50;;
5831;SDS011;50943;51.448;7.646;2023-08-20T13:16:42;7.57;;;6.67;;
5831;SDS011;50943;51.448;7.646;2023-08-20T13:19:09;7.17;;;6.33;;
5831;SDS011;50943;51.448;7.646;2023-08-20T13:21:35;8.87;;;6.60;;
5831;SDS011;50943;51.448;7.646;2023-08-20T13:24:02;10.10;;;6.90;;
5831;SDS011;50943;51.448;7.646;2023-08-20T13:26:30;8.67;;;7.23;;
5831;SDS011;50943;51.448;7.646;2023-08-20T13:28:57;9.43;;;6.70;;
5831;SDS011;50943;51.448;7.646;2023-08-20T13:31:24;8.33;;;5.90;;
5831;SDS011;50943;51.448;7.646;2023-08-20T13:33:50;8.87;;;6.00;;
5831;SDS011;50943;51.448;7.646;2023-08-20T13:36:17;6.87;;;5.93;;
5831;SDS011;50943;51.448;7.646;2023-08-20T13:38:43;8.90;;;5.93;;
5831;SDS011;50943;51.448;7.646;2023-08-20T13:41:10;8.10;;;6.43;;
5831;SDS011;50943;51.448;7.646;2023-08-20T13:43:38;7.77;;;6.17;;
5831;SDS011;50943;51.448;7.646;2023-08-20T13:46:04;8.40;;;6.57;;
5831;SDS011;50943;51.448;7.646;2023-08-20T13:48:31;10.67;;;6.77;;
5831;SDS011;50943;51.448;7.646;2023-08-20T13:50:57;8.67;;;6.93;;
5831;SDS011;50943;51.448;7.646;2023-08-20T13:53:24;9.10;;;8.20;;
5831;SDS011;50943;51.448;7.646;2023-08-20T13:55:50;8.60;;;7.00;;
5831;SDS011;50943;51.448;7.646;2023-08-20T13:58:17;14.43;;;8.67;;
5831;SDS011;50943;51.448;7.646;2023-08-20T14:00:45;12.80;;;8.70;;
5831;SDS011;50943;51.448;7.646;2023-08-20T14:03:11;10.70;;;8.20;;
5831;SDS011;50943;51.448;7.646;2023-08-20T14:05:38;16.43;;;8.27;;
5831;SDS011;50943;51.448;7.646;2023-08-20T14:08:05;10.00;;;8.20;;
5831;SDS011;50943;51.448;7.646;2023-08-20T14:10:32;11.40;;;8.23;;
5831;SDS011;50943;51.448;7.646;2023-08-20T14:12:58;9.37;;;6.80;;
5831;SDS011;50943;51.448;7.646;2023-08-20T14:15:25;9.20;;;8.23;;
5831;SDS011;50943;51.448;7.646;2023-08-20T14:17:53;8.77;;;7.50;;
5831;SDS011;50943;51.448;7.646;2023-08-20T14:20:19;10.90;;;8.60;;
5831;SDS011;50943;51.448;7.646;2023-08-20T14:22:46;10.07;;;8.53;;
5831;SDS011;50943;51.448;7.646;2023-08-20T14:25:12;10.47;;;8.40;;
5831;SDS011;50943;51.448;7.646;2023-08-20T14:27:39;9.03;;;7.90;;
5831;SDS011;50943;51.448;7.646;2023-08-20T14:30:06;9.57;;;8.57;;
5831;SDS011;50943;51.448;7.646;2023-08-20T14:32:34;10.37;;;9.03;;
5831;SDS011;50943;51.448;7.646;2023-08-20T14:35:02;15.60;;;9.83;;
5831;SDS011;50943;51.448;7.646;2023-08-20T14:37:29;10.90;;;9.47;;
5831;SDS011;50943;51.448;7.646;2023-08-20T14:39:56;24.70;;;8.47;;
5831;SDS011;50943;51.448;7.646;2023-08-20T14:42:22;10.33;;;9.23;;
5831;SDS011;50943;51.448;7.646;2023-08-20T14:44:49;10.30;;;8.93;;
5831;SDS011;50943;51.448;7.646;2023-08-20T14:47:16;10.93;;;8.97;;
5831;SDS011;50943;51.448;7.646;2023-08-20T14:49:42;10.40;;;8.43;;